Time;durP1;ratioP1;P1;durP2;ratioP2;P2;SDS_P1;SDS_P2;PMS_P1;PMS_P2;Temp;Humidity;BMP_temperature;BMP_pressure;BME280_temperature;BME280_humidity;BME280_pressure;Samples;Min_cycle;Max_cycle;Signal;HPM_P1;HPM_P2
2022/10/20 00:01:00;;;;;;;0.40;0.20;;;7.70;99.90;;;;;;4829070;29;20066;-87
2022/10/20 00:03:27;;;;;;;0.08;0.08;;;8.50;99.90;;;;;;4843601;29;20054;-85
2022/10/20 00:05:53;;;;;;;0.45;0.35;;;7.70;99.90;;;;;;4829134;29;20057;-86
2022/10/20 00:08:19;;;;;;;0.38;0.30;;;7.60;99.90;;;;;;4828785;29;20480;-86
2022/10/20 00:10:55;;;;;;;1.20;0.10;;;7.60;99.90;;;;;;4829003;29;20092;-87
2022/10/20 00:13:22;;;;;;;0.10;0.10;;;7.60;99.90;;;;;;4843665;29;20053;-86
2022/10/20 00:15:49;;;;;;;0.77;0.28;;;7.50;99.90;;;;;;4828671;29;20140;-87
2022/10/20 00:18:15;;;;;;;0.17;0.17;;;7.50;99.90;;;;;;4843574;29;20099;-86
2022/10/20 00:20:41;;;;;;;0.10;0.10;;;7.60;99.90;;;;;;4829051;29;20081;-87
2022/10/20 00:23:06;;;;;;;0.17;0.10;;;7.50;99.90;;;;;;4828559;29;20103;-85
2022/10/20 00:25:32;;;;;;;0.30;0.30;;;7.50;99.90;;;;;;4843693;29;20100;-85
2022/10/20 00:27:58;;;;;;;0.10;0.10;;;7.50;99.90;;;;;;4813576;29;20108;-86
2022/10/20 00:30:23;;;;;;;0.40;0.30;;;7.50;99.90;;;;;;4828682;29;20056;-86
2022/10/20 00:32:49;;;;;;;0.27;0.20;;;7.50;99.90;;;;;;4828530;29;20053;-85
2022/10/20 00:35:15;;;;;;;0.27;0.20;;;7.50;99.90;;;;;;4828551;29;20053;-86
2022/10/20 00:37:40;;;;;;;0.20;0.20;;;7.50;99.90;;;;;;4843946;29;20046;-86
2022/10/20 00:40:06;;;;;;;0.30;0.27;;;7.40;99.90;;;;;;4813561;29;20415;-87
2022/10/20 00:42:32;;;;;;;0.38;0.30;;;7.40;99.90;;;;;;4843206;29;20463;-86
2022/10/20 00:44:59;;;;;;;0.47;0.23;;;7.40;99.90;;;;;;4843446;29;20201;-86
2022/10/20 00:47:35;;;;;;;0.80;0.25;;;7.40;99.90;;;;;;4843460;29;20132;-86
2022/10/20 00:50:08;;;;;;;0.60;0.60;;;7.40;99.90;;;;;;4828527;29;20398;-86
2022/10/20 00:52:35;;;;;;;0.35;0.13;;;7.40;99.90;;;;;;4842630;29;20061;-87
2022/10/20 00:55:01;;;;;;;0.10;0.10;;;7.30;99.90;;;;;;4813724;29;20045;-86
2022/10/20 00:57:29;;;;;;;0.20;0.17;;;7.40;99.90;;;;;;4828213;29;20061;-85
2022/10/20 00:59:55;;;;;;;0.57;0.50;;;7.40;99.90;;;;;;4831857;29;20049;-86
2022/10/20 01:02:20;;;;;;;0.10;0.10;;;7.30;99.90;;;;;;4846773;29;20048;-86
2022/10/20 01:04:46;;;;;;;0.37;0.37;;;7.20;99.90;;;;;;4831741;29;20057;-86
2022/10/20 01:07:12;;;;;;;0.30;0.27;;;7.20;99.90;;;;;;4847301;29;20092;-85
2022/10/20 01:09:38;;;;;;;0.40;0.40;;;7.20;99.90;;;;;;4831642;29;20493;-86
2022/10/20 01:12:25;;;;;;;0.30;0.20;;;7.20;99.90;;;;;;4816839;29;20049;-86
2022/10/20 01:15:02;;;;;;;1.90;0.50;;;7.20;99.90;;;;;;4846692;29;20132;-86
2022/10/20 01:18:04;;;;;;;0.40;0.40;;;7.20;99.90;;;;;;4831634;29;20512;-85
2022/10/20 01:20:38;;;;;;;0.30;0.30;;;7.10;99.90;;;;;;4846742;29;20564;-85
2022/10/20 01:23:28;;;;;;;0.32;0.32;;;7.10;99.90;;;;;;4831370;29;20132;-86
2022/10/20 01:26:22;;;;;;;0.32;0.32;;;7.10;99.90;;;;;;4847055;29;20049;-85
2022/10/20 01:29:01;;;;;;;0.05;0.05;;;7.10;99.90;;;;;;4846902;29;20132;-85
2022/10/20 01:31:39;;;;;;;0.25;0.25;;;7.10;99.90;;;;;;4846352;29;20140;-86
2022/10/20 01:34:15;;;;;;;0.85;0.50;;;7.10;99.90;;;;;;4831005;29;20053;-85
2022/10/20 01:37:00;;;;;;;1.42;0.28;;;7.00;99.90;;;;;;4846234;29;20314;-86
2022/10/20 01:39:37;;;;;;;0.40;0.40;;;7.00;99.90;;;;;;4846513;29;20053;-86
2022/10/20 01:42:12;;;;;;;0.75;0.38;;;7.00;99.90;;;;;;4846307;29;20086;-86
2022/10/20 01:44:40;;;;;;;0.10;0.10;;;7.10;99.90;;;;;;4846205;29;20049;-85
2022/10/20 01:47:08;;;;;;;0.15;0.15;;;6.90;99.90;;;;;;4830833;29;20097;-86
2022/10/20 01:49:35;;;;;;;0.35;0.30;;;6.90;99.90;;;;;;4830474;29;20045;-86
2022/10/20 01:52:01;;;;;;;1.70;0.40;;;6.90;99.90;;;;;;4845929;29;20097;-87
2022/10/20 01:54:28;;;;;;;0.52;0.40;;;6.90;99.90;;;;;;4830679;29;20049;-85
2022/10/20 01:57:22;;;;;;;0.38;0.38;;;6.90;99.90;;;;;;4831155;29;20552;-85
2022/10/20 01:59:47;;;;;;;0.35;0.00;;;6.90;99.90;;;;;;4846438;29;20059;-85
2022/10/20 02:02:40;;;;;;;0.30;0.30;;;7.20;99.90;;;;;;4846555;29;20132;-86
2022/10/20 02:05:12;;;;;;;0.28;0.28;;;6.90;99.90;;;;;;4831386;29;20054;-85
2022/10/20 02:07:40;;;;;;;0.75;0.22;;;6.90;99.90;;;;;;4846123;29;20050;-85
2022/10/20 02:10:21;;;;;;;0.28;0.28;;;6.90;99.90;;;;;;4846549;29;20055;-85
2022/10/20 02:12:52;;;;;;;0.10;0.10;;;6.90;99.90;;;;;;4830828;29;20446;-86
2022/10/20 02:15:22;;;;;;;0.20;0.20;;;6.90;99.90;;;;;;4846425;29;20104;-85
2022/10/20 02:17:55;;;;;;;0.45;0.20;;;6.80;99.90;;;;;;4845823;29;20045;-85
2022/10/20 02:20:21;;;;;;;0.20;0.15;;;6.80;99.90;;;;;;4831309;29;20121;-85
2022/10/20 02:22:48;;;;;;;0.40;0.40;;;6.80;99.90;;;;;;4830257;29;20344;-85
2022/10/20 02:25:13;;;;;;;0.10;0.10;;;6.80;99.90;;;;;;4830891;29;20053;-86
2022/10/20 02:27:44;;;;;;;0.40;0.40;;;6.80;99.90;;;;;;4800400;29;20053;-85
2022/10/20 02:30:14;;;;;;;0.45;0.45;;;6.80;99.90;;;;;;4845951;29;20052;-86
2022/10/20 02:32:42;;;;;;;0.40;0.40;;;6.80;99.90;;;;;;4830448;29;20048;-86
2022/10/20 02:35:19;;;;;;;0.25;0.25;;;6.80;99.90;;;;;;4845899;29;20050;-86
2022/10/20 02:37:45;;;;;;;0.13;0.10;;;6.70;99.90;;;;;;4830514;29;20060;-85
2022/10/20 02:40:11;;;;;;;0.23;0.23;;;6.70;99.90;;;;;;4815673;29;20057;-85
2022/10/20 02:42:39;;;;;;;0.45;0.45;;;6.70;99.90;;;;;;4845123;29;20087;-86
2022/10/20 02:45:06;;;;;;;0.57;0.20;;;7.20;99.90;;;;;;4815342;29;20505;-85
2022/10/20 02:47:32;;;;;;;0.38;0.35;;;6.70;99.90;;;;;;4830133;29;20061;-88
2022/10/20 02:49:57;;;;;;;0.33;0.30;;;6.70;99.90;;;;;;4815139;29;20049;-84
2022/10/20 02:52:23;;;;;;;0.13;0.13;;;6.70;99.90;;;;;;4830633;29;20118;-85
2022/10/20 02:54:49;;;;;;;0.20;0.17;;;6.70;99.90;;;;;;4845276;29;20100;-89
2022/10/20 02:57:14;;;;;;;0.27;0.27;;;6.70;99.90;;;;;;4815242;29;20068;-85
2022/10/20 02:59:40;;;;;;;0.63;0.30;;;6.60;99.90;;;;;;4830284;29;20112;-85
2022/10/20 03:02:06;;;;;;;0.40;0.23;;;6.60;99.90;;;;;;4845856;29;20108;-85
2022/10/20 03:04:31;;;;;;;0.37;0.33;;;6.70;99.90;;;;;;4814985;29;20050;-85
2022/10/20 03:06:57;;;;;;;0.20;0.20;;;7.20;99.90;;;;;;4845186;29;20107;-85
2022/10/20 03:09:23;;;;;;;0.10;0.10;;;6.60;99.90;;;;;;4845404;29;20069;-85
2022/10/20 03:11:48;;;;;;;0.33;0.33;;;6.60;99.90;;;;;;4845113;29;20052;-85
2022/10/20 03:14:14;;;;;;;0.20;0.20;;;6.60;99.90;;;;;;4830286;29;20053;-86
2022/10/20 03:16:40;;;;;;;0.77;0.40;;;6.50;99.90;;;;;;4814515;29;20053;-86
2022/10/20 03:19:05;;;;;;;0.43;0.33;;;6.50;99.90;;;;;;4830136;29;20120;-85
2022/10/20 03:21:31;;;;;;;3.20;0.37;;;6.60;99.90;;;;;;4829668;29;20128;-86
2022/10/20 03:23:57;;;;;;;0.77;0.20;;;6.60;99.90;;;;;;4829857;29;20057;-86
2022/10/20 03:26:22;;;;;;;2.00;0.40;;;6.50;99.90;;;;;;4829860;29;20060;-85
2022/10/20 03:28:48;;;;;;;0.87;0.87;;;6.50;99.90;;;;;;4829634;29;20056;-85
2022/10/20 03:31:14;;;;;;;0.57;0.53;;;6.50;99.90;;;;;;4814468;29;20049;-85
2022/10/20 03:33:39;;;;;;;1.40;0.80;;;6.50;99.90;;;;;;4844544;29;20075;-85
2022/10/20 03:36:05;;;;;;;0.30;0.10;;;6.50;99.90;;;;;;4814823;29;20109;-85
2022/10/20 03:38:31;;;;;;;0.93;0.30;;;6.50;99.90;;;;;;4814431;29;20523;-85
2022/10/20 03:40:57;;;;;;;1.30;0.53;;;6.50;99.90;;;;;;4829594;29;20294;-86
2022/10/20 03:43:22;;;;;;;0.60;0.30;;;6.60;99.90;;;;;;4829639;29;20489;-85
2022/10/20 03:45:48;;;;;;;1.57;0.60;;;6.50;99.90;;;;;;4844597;29;20148;-85
2022/10/20 03:48:14;;;;;;;0.83;0.37;;;6.50;99.90;;;;;;4814194;29;20057;-85
2022/10/20 03:50:41;;;;;;;0.40;0.40;;;7.40;99.90;;;;;;4844132;29;20060;-86
2022/10/20 03:53:10;;;;;;;0.20;0.20;;;6.50;99.90;;;;;;4844760;29;20096;-85
2022/10/20 03:55:36;;;;;;;0.65;0.40;;;6.40;99.90;;;;;;4844538;29;20132;-85
2022/10/20 03:58:02;;;;;;;1.17;0.80;;;6.50;99.90;;;;;;4829150;29;20088;-85
2022/10/20 04:00:28;;;;;;;0.43;0.43;;;6.40;99.90;;;;;;4844459;29;20805;-85
2022/10/20 04:02:53;;;;;;;0.97;0.90;;;6.40;99.90;;;;;;4844074;29;20049;-85
2022/10/20 04:05:20;;;;;;;0.20;0.20;;;6.40;99.90;;;;;;4829565;29;20045;-85
2022/10/20 04:07:46;;;;;;;0.80;0.55;;;6.40;99.90;;;;;;4844109;29;20060;-85
2022/10/20 04:10:13;;;;;;;0.30;0.28;;;6.40;99.90;;;;;;4829605;29;20057;-83
2022/10/20 04:12:39;;;;;;;0.30;0.30;;;6.30;99.90;;;;;;4844589;29;20057;-83
2022/10/20 04:15:06;;;;;;;1.23;0.40;;;6.30;99.90;;;;;;4844171;29;20052;-82
2022/10/20 04:17:32;;;;;;;1.27;0.82;;;6.40;99.90;;;;;;4813467;29;20090;-84
2022/10/20 04:19:58;;;;;;;0.73;0.60;;;6.30;99.90;;;;;;4828932;29;20545;-84
2022/10/20 04:22:23;;;;;;;1.03;0.27;;;7.20;99.90;;;;;;4829200;29;20049;-83
2022/10/20 04:24:49;;;;;;;0.73;0.40;;;7.20;99.90;;;;;;4829015;29;20097;-85
2022/10/20 04:27:15;;;;;;;0.37;0.33;;;6.70;99.90;;;;;;4843886;29;20058;-84
2022/10/20 04:29:40;;;;;;;0.57;0.40;;;6.30;99.90;;;;;;4844310;29;20471;-83
2022/10/20 04:32:06;;;;;;;0.37;0.37;;;6.30;99.90;;;;;;4844024;29;20057;-87
2022/10/20 04:34:32;;;;;;;0.37;0.37;;;6.20;99.90;;;;;;4847181;29;20052;-86
2022/10/20 04:36:57;;;;;;;1.70;0.63;;;6.20;99.90;;;;;;4847945;29;20045;-86
2022/10/20 04:39:24;;;;;;;0.50;0.43;;;6.20;99.90;;;;;;4817211;29;20497;-86
2022/10/20 04:41:50;;;;;;;0.55;0.50;;;6.20;99.90;;;;;;4817492;29;20181;-88
2022/10/20 04:44:19;;;;;;;1.13;0.63;;;6.20;99.90;;;;;;4817483;29;20090;-87
2022/10/20 04:46:44;;;;;;;0.57;0.40;;;5.00;99.90;;;;;;4832329;29;20381;-89
2022/10/20 04:49:18;;;;;;;0.95;0.77;;;5.80;99.90;;;;;;4831655;29;20147;-87
2022/10/20 04:51:43;;;;;;;0.55;0.38;;;6.20;99.90;;;;;;4847583;29;20065;-88
2022/10/20 04:54:18;;;;;;;1.27;0.40;;;6.20;99.90;;;;;;4832239;29;20053;-87
2022/10/20 04:56:46;;;;;;;0.80;0.60;;;5.50;99.90;;;;;;4832488;29;20061;-88
2022/10/20 04:59:12;;;;;;;0.82;0.40;;;6.80;99.90;;;;;;4832558;29;20476;-87
2022/10/20 05:01:45;;;;;;;2.80;0.53;;;7.70;99.90;;;;;;4832370;29;20081;-87
2022/10/20 05:04:20;;;;;;;2.00;0.90;;;6.30;99.90;;;;;;4817127;29;20045;-87
2022/10/20 05:06:47;;;;;;;0.98;0.50;;;6.10;99.90;;;;;;4832237;29;20053;-88
2022/10/20 05:09:16;;;;;;;0.85;0.60;;;6.20;99.90;;;;;;4832090;29;20057;-87
2022/10/20 05:11:41;;;;;;;0.30;0.30;;;5.30;99.90;;;;;;4832267;29;20198;-87
2022/10/20 05:14:09;;;;;;;2.43;0.40;;;6.20;99.90;;;;;;4832006;29;20136;-87
2022/10/20 05:16:38;;;;;;;0.93;0.47;;;5.80;99.90;;;;;;4847430;29;20477;-88
2022/10/20 05:19:06;;;;;;;1.95;0.93;;;5.50;99.90;;;;;;4816794;29;20194;-87
2022/10/20 05:21:32;;;;;;;0.32;0.32;;;7.20;99.90;;;;;;4831919;29;20097;-88
2022/10/20 05:24:02;;;;;;;0.77;0.70;;;6.10;99.90;;;;;;4831782;29;20144;-87
2022/10/20 05:26:33;;;;;;;0.30;0.30;;;6.10;99.90;;;;;;4847491;29;20142;-87
2022/10/20 05:28:59;;;;;;;1.15;0.77;;;6.20;99.90;;;;;;4831777;29;20057;-87
2022/10/20 05:31:25;;;;;;;0.90;0.57;;;6.20;99.90;;;;;;4831966;29;20405;-87
2022/10/20 05:33:55;;;;;;;0.93;0.50;;;6.60;99.90;;;;;;4831579;29;20053;-91
2022/10/20 05:36:26;;;;;;;0.65;0.30;;;6.10;99.90;;;;;;4832111;29;20053;-87
2022/10/20 05:38:54;;;;;;;1.55;0.52;;;6.10;99.90;;;;;;4831597;29;20053;-90
2022/10/20 05:41:27;;;;;;;3.08;0.80;;;6.20;99.90;;;;;;4831841;29;20061;-87
2022/10/20 05:43:58;;;;;;;1.50;0.70;;;6.10;99.90;;;;;;4831054;29;20053;-88
2022/10/20 05:46:25;;;;;;;0.98;0.50;;;6.10;99.90;;;;;;4831776;29;20053;-87
2022/10/20 05:48:56;;;;;;;0.88;0.50;;;6.10;99.90;;;;;;4831440;29;20113;-87
2022/10/20 05:51:25;;;;;;;0.55;0.47;;;6.10;99.90;;;;;;4830977;29;20062;-87
2022/10/20 05:53:56;;;;;;;0.52;0.40;;;6.10;99.90;;;;;;4831573;29;20057;-87
2022/10/20 05:56:25;;;;;;;1.10;0.52;;;5.40;99.90;;;;;;4846832;29;20050;-87
2022/10/20 05:59:01;;;;;;;1.58;1.10;;;6.10;99.90;;;;;;4831536;29;20062;-87
2022/10/20 06:01:38;;;;;;;1.08;0.75;;;6.10;99.90;;;;;;4846667;29;20088;-87
2022/10/20 06:04:05;;;;;;;1.17;1.02;;;6.30;99.90;;;;;;4831122;29;20053;-87
2022/10/20 06:06:38;;;;;;;0.75;0.60;;;6.20;99.90;;;;;;4846675;29;20053;-88
2022/10/20 06:09:06;;;;;;;0.82;0.68;;;6.30;99.90;;;;;;4830924;29;20061;-88
2022/10/20 06:11:32;;;;;;;1.33;0.85;;;6.10;99.90;;;;;;4831208;29;20442;-87
2022/10/20 06:14:00;;;;;;;0.70;0.70;;;6.20;99.90;;;;;;4846157;29;20064;-88
2022/10/20 06:16:31;;;;;;;1.20;1.10;;;6.10;99.90;;;;;;4831174;29;20144;-88
2022/10/20 06:19:00;;;;;;;0.90;0.90;;;6.10;99.90;;;;;;4830898;29;20065;-91
2022/10/20 06:21:33;;;;;;;1.65;0.63;;;6.00;99.90;;;;;;4830801;29;20478;-87
2022/10/20 06:24:00;;;;;;;1.17;0.70;;;6.10;99.90;;;;;;4830771;29;20096;-88
2022/10/20 06:26:35;;;;;;;1.10;0.63;;;6.20;99.90;;;;;;4830904;29;20057;-88
2022/10/20 06:29:05;;;;;;;1.05;0.95;;;6.20;99.90;;;;;;4830332;29;20053;-87
2022/10/20 06:31:30;;;;;;;4.00;0.63;;;6.20;99.90;;;;;;4830359;29;20064;-88
2022/10/20 06:34:00;;;;;;;0.73;0.73;;;6.10;99.90;;;;;;4830471;29;20057;-88
2022/10/20 06:36:29;;;;;;;0.50;0.50;;;6.20;99.90;;;;;;4830665;29;20113;-87
2022/10/20 06:38:56;;;;;;;0.40;0.40;;;6.20;99.90;;;;;;4845936;29;20068;-85
2022/10/20 06:41:23;;;;;;;1.10;0.70;;;6.30;99.90;;;;;;4815884;29;20049;-83
2022/10/20 06:43:59;;;;;;;0.93;0.70;;;7.20;99.90;;;;;;4830360;29;20148;-87
2022/10/20 06:46:35;;;;;;;0.28;0.25;;;6.30;99.90;;;;;;4845690;29;20181;-86
2022/10/20 06:49:06;;;;;;;0.68;0.68;;;6.30;99.90;;;;;;4845371;29;20401;-87
2022/10/20 06:51:36;;;;;;;1.95;0.90;;;5.50;99.90;;;;;;4845025;29;20057;-87
2022/10/20 06:54:05;;;;;;;0.80;0.30;;;7.60;99.90;;;;;;4845201;29;20549;-87
2022/10/20 06:56:35;;;;;;;1.73;1.08;;;6.50;99.90;;;;;;4829225;29;20053;-86
2022/10/20 06:59:02;;;;;;;0.60;0.60;;;6.50;99.90;;;;;;4844943;29;20050;-86
2022/10/20 07:01:35;;;;;;;3.35;1.40;;;7.30;99.90;;;;;;4829627;29;20132;-86
2022/10/20 07:04:04;;;;;;;1.00;0.80;;;6.60;99.90;;;;;;4830123;29;20050;-87
2022/10/20 07:06:33;;;;;;;2.47;0.60;;;6.60;99.90;;;;;;4845231;29;20045;-88
2022/10/20 07:09:03;;;;;;;3.80;1.27;;;6.70;99.90;;;;;;4845159;29;20091;-86
2022/10/20 07:11:33;;;;;;;0.95;0.50;;;6.70;99.90;;;;;;4845270;29;20140;-87
2022/10/20 07:14:00;;;;;;;0.77;0.60;;;6.40;99.90;;;;;;4829909;29;20068;-85
2022/10/20 07:16:30;;;;;;;1.67;0.65;;;6.60;99.90;;;;;;4829621;29;20404;-85
2022/10/20 07:18:56;;;;;;;1.60;0.77;;;6.80;99.90;;;;;;4829626;29;20493;-84
2022/10/20 07:21:27;;;;;;;0.60;0.57;;;6.90;99.90;;;;;;4829549;29;20186;-85
2022/10/20 07:23:56;;;;;;;2.22;1.23;;;6.90;99.90;;;;;;4844944;29;20052;-86
2022/10/20 07:26:28;;;;;;;2.58;0.85;;;6.90;99.90;;;;;;4829260;29;20049;-85
2022/10/20 07:28:56;;;;;;;1.98;0.75;;;6.90;99.90;;;;;;4844781;29;20045;-86
2022/10/20 07:31:32;;;;;;;1.52;0.80;;;7.00;99.90;;;;;;4829482;29;20058;-87
2022/10/20 07:33:59;;;;;;;1.45;0.68;;;6.90;99.90;;;;;;4844880;29;20049;-88
2022/10/20 07:36:27;;;;;;;0.60;0.52;;;6.80;99.90;;;;;;4829510;29;20053;-86
2022/10/20 07:38:56;;;;;;;1.05;0.63;;;6.90;99.90;;;;;;4829528;29;20052;-85
2022/10/20 07:41:23;;;;;;;1.35;0.60;;;6.90;99.90;;;;;;4844719;29;20045;-87
2022/10/20 07:43:50;;;;;;;1.20;0.65;;;6.90;99.90;;;;;;4829563;29;20053;-85
2022/10/20 07:46:19;;;;;;;1.85;0.95;;;7.30;99.90;;;;;;4814209;29;20052;-85
2022/10/20 07:48:44;;;;;;;0.70;0.70;;;6.90;99.90;;;;;;4844666;29;20109;-84
2022/10/20 07:51:27;;;;;;;1.57;0.97;;;6.90;99.90;;;;;;4828887;29;20057;-87
2022/10/20 07:53:58;;;;;;;1.52;0.80;;;6.90;99.90;;;;;;4844272;29;20064;-85
2022/10/20 07:56:28;;;;;;;0.93;0.52;;;6.90;99.90;;;;;;4829291;29;20062;-85
2022/10/20 07:58:54;;;;;;;0.88;0.60;;;6.90;99.90;;;;;;4844486;29;20061;-85
2022/10/20 08:01:20;;;;;;;1.65;0.98;;;7.20;99.90;;;;;;4843915;29;20113;-85
2022/10/20 08:03:46;;;;;;;1.93;1.00;;;7.10;99.90;;;;;;4844196;29;20057;-85
2022/10/20 08:06:11;;;;;;;1.37;1.27;;;7.20;99.90;;;;;;4813847;29;20081;-85
2022/10/20 08:08:37;;;;;;;0.67;0.57;;;8.50;99.90;;;;;;4829159;29;20053;-85
2022/10/20 08:11:04;;;;;;;0.93;0.57;;;7.50;99.90;;;;;;4843936;29;20049;-85
2022/10/20 08:13:30;;;;;;;0.32;0.32;;;6.50;99.90;;;;;;4828868;29;20052;-85
2022/10/20 08:15:56;;;;;;;;;;;7.50;99.90;;;;;;4829534;29;20068;-85
2022/10/20 08:18:24;;;;;;;0.77;0.70;;;7.60;99.90;;;;;;4844037;29;19924;-86
2022/10/20 08:20:50;;;;;;;1.10;0.50;;;7.70;99.90;;;;;;4829248;29;20057;-85
2022/10/20 08:23:16;;;;;;;2.37;1.00;;;7.80;99.90;;;;;;4843361;29;20386;-86
2022/10/20 08:25:42;;;;;;;0.70;0.50;;;7.70;99.90;;;;;;4813817;29;20053;-86
2022/10/20 08:28:08;;;;;;;1.30;0.80;;;7.60;99.90;;;;;;4844185;29;20049;-85
2022/10/20 08:30:34;;;;;;;1.20;0.70;;;7.80;99.90;;;;;;4828717;29;20185;-86
2022/10/20 08:33:00;;;;;;;;;;;7.80;99.90;;;;;;4844621;29;20297;-86
2022/10/20 08:35:26;;;;;;;1.20;0.70;;;7.80;99.90;;;;;;4843882;29;20268;-85
2022/10/20 08:37:52;;;;;;;0.77;0.40;;;7.90;99.90;;;;;;4844185;29;20106;-85
2022/10/20 08:40:23;;;;;;;0.73;0.70;;;8.00;99.90;;;;;;4860014;29;20868;-87
2022/10/20 08:42:49;;;;;;;1.38;0.52;;;8.00;99.90;;;;;;4843829;29;20052;-85
2022/10/20 08:45:19;;;;;;;2.72;0.68;;;8.00;99.90;;;;;;4843788;29;20050;-89
2022/10/20 08:47:46;;;;;;;0.45;0.40;;;8.00;99.90;;;;;;4828910;29;20105;-85
2022/10/20 08:50:16;;;;;;;1.05;0.70;;;8.10;99.90;;;;;;4828874;29;20045;-85
2022/10/20 08:52:43;;;;;;;1.98;0.70;;;8.20;99.90;;;;;;4828960;29;20065;-86
2022/10/20 08:55:40;;;;;;;1.30;0.52;;;8.20;99.90;;;;;;4844248;29;20084;-85
2022/10/20 08:58:12;;;;;;;2.28;0.75;;;8.20;99.90;;;;;;4827164;29;20121;-84
2022/10/20 09:00:41;;;;;;;0.82;0.60;;;8.30;99.90;;;;;;4828727;29;20057;-84
2022/10/20 09:03:27;;;;;;;0.82;0.63;;;8.40;99.90;;;;;;4828550;29;20181;-84
2022/10/20 09:05:59;;;;;;;0.50;0.50;;;8.50;99.90;;;;;;4843776;29;20053;-87
2022/10/20 09:08:31;;;;;;;0.95;0.70;;;8.60;99.90;;;;;;4827984;29;20045;-87
2022/10/20 09:10:59;;;;;;;1.25;0.57;;;8.70;99.90;;;;;;4828461;29;20508;-86
2022/10/20 09:13:29;;;;;;;1.95;0.80;;;8.90;99.90;;;;;;4828248;29;20105;-87
2022/10/20 09:16:05;;;;;;;1.65;1.05;;;9.00;99.90;;;;;;4828504;29;20061;-85
2022/10/20 09:18:33;;;;;;;0.85;0.50;;;9.20;99.90;;;;;;4829358;29;20136;-87
2022/10/20 09:21:16;;;;;;;0.85;0.82;;;9.20;99.90;;;;;;4847357;29;20057;-86
2022/10/20 09:23:53;;;;;;;0.50;0.43;;;9.30;99.90;;;;;;4847231;29;20549;-88
2022/10/20 09:26:34;;;;;;;0.93;0.55;;;9.40;99.90;;;;;;4833928;29;20080;-88
2022/10/20 09:29:14;;;;;;;0.45;0.45;;;8.60;99.90;;;;;;4833574;29;20061;-88
2022/10/20 09:31:48;;;;;;;1.08;0.73;;;9.50;99.90;;;;;;4848168;29;20539;-87
2022/10/20 09:37:19;;;;;;;0.80;0.73;;;9.60;99.90;;;;;;4848014;29;20057;-87
2022/10/20 09:39:58;;;;;;;1.25;0.70;;;9.60;99.90;;;;;;4831972;29;20489;-86
2022/10/20 09:42:56;;;;;;;0.63;0.52;;;9.60;99.90;;;;;;4846766;29;20501;-87
2022/10/20 09:45:35;;;;;;;1.38;0.70;;;9.70;99.90;;;;;;4818892;29;20149;-87
2022/10/20 09:48:14;;;;;;;0.77;0.70;;;9.70;99.90;;;;;;4847662;29;20060;-87
2022/10/20 09:50:48;;;;;;;1.08;0.63;;;9.70;99.90;;;;;;4846787;29;20245;-87
2022/10/20 09:53:20;;;;;;;1.92;0.55;;;9.80;99.90;;;;;;4847536;29;20144;-87
2022/10/20 09:55:50;;;;;;;0.25;0.25;;;9.40;99.90;;;;;;4847487;29;20393;-87
2022/10/20 09:58:44;;;;;;;1.05;0.68;;;9.90;99.90;;;;;;4831714;29;20148;-87
2022/10/20 10:01:10;;;;;;;1.20;0.65;;;9.90;99.90;;;;;;4819737;29;20053;-89
2022/10/20 10:03:43;;;;;;;3.20;0.63;;;10.10;99.90;;;;;;4830953;29;20442;-87
2022/10/20 10:06:32;;;;;;;1.40;0.50;;;10.00;99.90;;;;;;4831336;29;20140;-87
2022/10/20 10:09:02;;;;;;;0.68;0.38;;;10.00;99.90;;;;;;4831083;29;20493;-87
2022/10/20 10:11:35;;;;;;;0.32;0.30;;;10.10;99.90;;;;;;4846323;29;20048;-90
2022/10/20 10:14:07;;;;;;;0.82;0.60;;;10.20;99.90;;;;;;4831410;29;20054;-88
2022/10/20 10:16:45;;;;;;;0.80;0.40;;;10.10;99.90;;;;;;4831354;29;20442;-88
2022/10/20 10:19:20;;;;;;;0.55;0.50;;;10.20;99.90;;;;;;4831252;29;20082;-88
2022/10/20 10:22:11;;;;;;;0.82;0.47;;;10.10;99.90;;;;;;4847206;29;20045;-89
2022/10/20 10:28:07;;;;;;;;;;;;;;;;;;;;;
2022/10/20 10:30:46;;;;;;;0.52;0.32;;;10.60;99.90;;;;;;4845662;29;20046;-92
2022/10/20 10:33:28;;;;;;;0.22;0.22;;;10.90;99.90;;;;;;4830480;29;20065;-92
2022/10/20 10:35:57;;;;;;;0.55;0.40;;;11.20;99.90;;;;;;4830339;29;20094;-93
2022/10/20 10:38:35;;;;;;;0.35;0.35;;;11.40;99.90;;;;;;4832150;29;20050;-94
2022/10/20 10:41:26;;;;;;;0.40;0.40;;;11.70;99.90;;;;;;4833791;29;20057;-94
2022/10/20 10:43:55;;;;;;;0.50;0.50;;;12.10;99.90;;;;;;4831341;29;20045;-92
2022/10/20 10:46:35;;;;;;;0.40;0.40;;;11.60;99.90;;;;;;4831536;29;20042;-92
2022/10/20 10:49:36;;;;;;;0.57;0.50;;;12.40;99.90;;;;;;4831651;29;20049;-91
2022/10/20 10:52:24;;;;;;;1.42;0.80;;;12.40;99.90;;;;;;4829726;29;20059;-92
2022/10/20 10:54:53;;;;;;;1.15;0.60;;;12.60;99.90;;;;;;4830126;29;20404;-92
2022/10/20 10:57:41;;;;;;;0.60;0.50;;;12.70;99.90;;;;;;4830300;29;20109;-91
2022/10/20 11:00:36;;;;;;;1.70;0.38;;;12.80;99.90;;;;;;4830444;29;20090;-92
2022/10/20 11:03:19;;;;;;;1.52;1.40;;;13.90;99.90;;;;;;4844807;29;20045;-90
2022/10/20 11:05:59;;;;;;;1.17;0.80;;;12.70;99.90;;;;;;4829993;29;20045;-90
2022/10/20 11:09:06;;;;;;;1.00;0.80;;;12.70;99.90;;;;;;4845684;29;20405;-89
2022/10/20 11:11:44;;;;;;;1.23;0.77;;;11.70;99.90;;;;;;4819552;29;20049;-90
2022/10/20 11:14:24;;;;;;;1.25;0.63;;;12.60;99.90;;;;;;4830050;29;20061;-90
2022/10/20 11:17:15;;;;;;;0.63;0.60;;;12.90;99.90;;;;;;4829966;29;20140;-90
2022/10/20 11:19:56;;;;;;;0.45;0.45;;;13.10;99.90;;;;;;4829939;29;20057;-92
2022/10/20 11:22:39;;;;;;;0.47;0.43;;;13.30;99.90;;;;;;4829923;29;20053;-90
2022/10/20 11:25:44;;;;;;;;;;;;;;;;;;;;;
2022/10/20 11:28:42;;;;;;;1.23;0.90;;;13.20;99.90;;;;;;4846592;29;20049;-91
2022/10/20 11:31:26;;;;;;;1.17;0.60;;;13.10;99.90;;;;;;4831334;29;20481;-91
2022/10/20 11:34:14;;;;;;;1.65;0.70;;;13.20;99.90;;;;;;4830669;29;20426;-91
2022/10/20 11:37:00;;;;;;;0.52;0.52;;;12.90;99.90;;;;;;4829977;29;20053;-91
2022/10/20 11:39:47;;;;;;;0.68;0.50;;;13.00;99.90;;;;;;4830477;29;20057;-91
2022/10/20 11:42:52;;;;;;;0.85;0.57;;;13.00;99.90;;;;;;4845613;29;20409;-91
2022/10/20 11:45:56;;;;;;;1.48;0.93;;;12.80;99.90;;;;;;4830056;29;20489;-91
2022/10/20 11:48:41;;;;;;;1.08;0.50;;;12.80;99.90;;;;;;4823282;29;20058;-91
2022/10/20 11:51:29;;;;;;;0.43;0.43;;;12.80;99.90;;;;;;4829832;29;20058;-91
2022/10/20 11:54:27;;;;;;;0.32;0.32;;;12.70;99.90;;;;;;4829835;29;20049;-92
2022/10/20 11:57:18;;;;;;;0.45;0.35;;;12.70;99.90;;;;;;4830052;29;20064;-92
2022/10/20 12:00:06;;;;;;;0.88;0.57;;;12.60;99.90;;;;;;4829877;29;20151;-92
2022/10/20 12:02:53;;;;;;;1.42;0.70;;;11.70;99.90;;;;;;4830240;29;20105;-91
2022/10/20 12:05:39;;;;;;;0.93;0.85;;;12.60;99.90;;;;;;4829818;29;20057;-91
2022/10/20 12:08:26;;;;;;;0.95;0.45;;;12.60;99.90;;;;;;4844699;29;20114;-91
2022/10/20 12:11:07;;;;;;;0.43;0.35;;;13.40;99.90;;;;;;4829209;29;20057;-91
2022/10/20 12:13:45;;;;;;;0.98;0.88;;;12.50;99.90;;;;;;4829359;29;20056;-91
2022/10/20 12:16:50;;;;;;;0.75;0.73;;;12.50;99.90;;;;;;4829753;29;20106;-91
2022/10/20 12:19:21;;;;;;;0.60;0.30;;;12.50;99.90;;;;;;4829339;29;20064;-91
2022/10/20 12:21:54;;;;;;;1.55;0.73;;;12.50;99.90;;;;;;4830182;29;20057;-91
2022/10/20 12:24:47;;;;;;;1.45;0.80;;;12.60;99.90;;;;;;4829646;29;20417;-92
2022/10/20 12:27:19;;;;;;;1.17;0.68;;;12.50;99.90;;;;;;4829408;29;20405;-92
2022/10/20 12:30:11;;;;;;;0.50;0.50;;;12.40;99.90;;;;;;4829375;29;20137;-92
2022/10/20 12:32:59;;;;;;;1.85;0.90;;;12.40;99.90;;;;;;4788947;29;20053;-92
2022/10/20 12:35:58;;;;;;;0.50;0.50;;;12.30;99.90;;;;;;4830075;29;20050;-92
2022/10/20 12:38:58;;;;;;;1.42;0.77;;;12.20;99.90;;;;;;4830350;29;20054;-92
2022/10/20 12:41:47;;;;;;;0.70;0.70;;;12.80;99.90;;;;;;4832027;29;20053;-91
2022/10/20 12:44:16;;;;;;;0.70;0.47;;;12.10;99.90;;;;;;4845086;29;20056;-92
2022/10/20 12:46:55;;;;;;;0.85;0.55;;;12.10;99.90;;;;;;4829684;29;20545;-92
2022/10/20 12:50:13;;;;;;;0.68;0.63;;;11.40;99.90;;;;;;4815300;29;20480;-91
2022/10/20 12:52:58;;;;;;;0.77;0.63;;;12.00;99.90;;;;;;4843746;29;20063;-92
2022/10/20 12:55:37;;;;;;;0.60;0.52;;;12.00;99.90;;;;;;4847208;29;20141;-92
2022/10/20 12:58:21;;;;;;;0.70;0.57;;;12.00;99.90;;;;;;4834500;29;20519;-92
2022/10/20 13:00:47;;;;;;;3.03;0.47;;;12.00;99.90;;;;;;4849732;29;20420;-95
2022/10/20 13:03:42;;;;;;;0.38;0.22;;;11.60;99.90;;;;;;4834093;29;20053;-92
2022/10/20 13:06:25;;;;;;;1.80;1.15;;;11.80;99.90;;;;;;4833037;29;20104;-92
2022/10/20 13:09:18;;;;;;;1.27;0.50;;;11.80;99.90;;;;;;4847866;29;20449;-92
2022/10/20 13:11:58;;;;;;;1.27;0.77;;;11.10;99.90;;;;;;4848852;29;20493;-92
2022/10/20 13:15:14;;;;;;;2.17;0.68;;;11.70;99.90;;;;;;4833329;29;20157;-93
2022/10/20 13:18:03;;;;;;;0.85;0.77;;;11.80;99.90;;;;;;4833102;29;20061;-93
2022/10/20 13:21:13;;;;;;;0.68;0.50;;;11.60;99.90;;;;;;4834407;29;20057;-93
2022/10/20 13:24:12;;;;;;;0.82;0.82;;;11.60;99.90;;;;;;4832856;29;20398;-94
2022/10/20 13:27:35;;;;;;;;;;;;;;;;;;;;;
2022/10/20 13:34:11;;;;;;;1.48;0.80;;;11.60;99.90;;;;;;4837423;29;20054;-93
2022/10/20 13:40:37;;;;;;;0.40;0.40;;;11.50;99.90;;;;;;4847792;29;20058;-94
2022/10/20 13:43:24;;;;;;;0.80;0.80;;;11.80;99.90;;;;;;4841923;29;20053;-94
2022/10/20 13:49:55;;;;;;;3.00;0.77;;;12.60;99.90;;;;;;4838485;29;20525;-93
2022/10/20 13:52:35;;;;;;;;;;;;;;;;;;;;;